首页
METAR-TAF:

METAR-TAF

机场 :

海參崴國際機場

海參崴, 俄罗斯

纬度: 43-07N, 经度: 131-56E, 海拔: 184米

当前天气观测

该预报发布于30分钟前的07:30 UTC
风速16节,风向
温度 15°C
湿度 59%
气压 1010 hPa
能见度10公里或以上
散云层高于2300英尺

METAR: UHWW 220730Z 19008MPS 9999 SCT023 15/07 Q1010 R25L/0///70 NOSIG RMK QFE756

时间: 18:00 (08:00 UTC)

预报

该预报发布于3小时和0分钟前的05:00 UTC
预报有效从22日的 06点(UTC)到 23日的 06点(UTC)
风速14节,风向西南
能见度10公里或以上
多云层高于1100英尺
多云层高于2000英尺, 积雨云.
短暂存在
从 22日的 06点(UTC)到 22日的 12点(UTC)
风速23节,风向西南
成为
从 22日的 12点(UTC)到 22日的 14点(UTC)
风速6节,风向西
能見度: 3100
小阵雨, 轻雾

TAF: UHWW 220500Z 2206/2306 23007MPS 9999 BKN011 BKN020CB TEMPO 2206/2212 23012MPS BECMG 2212/2214 26003MPS 3100 -SHRA BR

超过4000个机场的气象观测和天气预报(METAR&TAF报告)。

可查询的气象台以黄色和红色小点在地图上表示。

将鼠标移到小点上方,可查看气象台名称。

然后点击查看天气观测和预报。

如需切换地图:点击带黑十字的绿色按钮放大地图;点击带横线的绿色按钮缩小地图;或者点击绿色箭头查看邻近地区的地图。


METAR-TAF: